createdAt,value
2019-02-26T00:01:30.833Z,9.67
2019-02-26T00:06:36.457Z,8.97
2019-02-26T00:11:44.278Z,15.10
2019-02-26T00:16:50.946Z,7.97
2019-02-26T00:21:55.663Z,11.57
2019-02-26T00:27:01.488Z,12.37
2019-02-26T00:32:07.197Z,8.50
2019-02-26T00:37:12.607Z,8.93
2019-02-26T00:42:19.552Z,9.03
2019-02-26T00:47:25.252Z,9.03
2019-02-26T00:52:30.944Z,10.10
2019-02-26T00:57:38.453Z,9.53
2019-02-26T01:02:42.332Z,7.53
2019-02-26T01:07:48.907Z,6.97
2019-02-26T01:12:52.466Z,9.10
2019-02-26T01:17:58.792Z,7.47
2019-02-26T01:23:02.817Z,7.83
2019-02-26T01:28:08.260Z,8.67
2019-02-26T01:33:13.008Z,12.00
2019-02-26T01:38:18.754Z,10.60
2019-02-26T01:43:23.747Z,8.30
2019-02-26T01:48:29.993Z,10.70
2019-02-26T01:53:34.403Z,9.70
2019-02-26T01:58:39.481Z,9.97
2019-02-26T02:03:44.867Z,11.80
2019-02-26T02:08:50.668Z,8.03
2019-02-26T02:13:57.272Z,8.20
2019-02-26T02:19:02.060Z,7.63
2019-02-26T02:24:10.649Z,6.97
2019-02-26T02:29:12.851Z,7.53
2019-02-26T02:34:19.071Z,8.20
2019-02-26T02:39:26.006Z,7.70
2019-02-26T02:44:29.719Z,10.03
2019-02-26T02:49:39.381Z,12.00
2019-02-26T02:54:49.936Z,9.10
2019-02-26T02:59:56.523Z,8.37
2019-02-26T03:05:01.364Z,8.20
2019-02-26T03:10:08.851Z,7.17
2019-02-26T03:15:14.842Z,8.40
2019-02-26T03:20:19.076Z,7.57
2019-02-26T03:25:27.034Z,7.57
2019-02-26T03:30:36.891Z,11.63
2019-02-26T03:35:37.123Z,11.23
2019-02-26T03:40:41.359Z,7.73
2019-02-26T03:45:48.823Z,6.60
2019-02-26T03:51:00.592Z,8.20
2019-02-26T03:56:04.201Z,7.20
2019-02-26T04:01:10.223Z,7.27
2019-02-26T04:06:16.638Z,7.67
2019-02-26T04:11:24.847Z,6.87
2019-02-26T04:16:29.858Z,5.97
2019-02-26T04:21:52.297Z,7.20
2019-02-26T04:27:28.234Z,6.87
2019-02-26T04:33:04.081Z,7.43
2019-02-26T04:49:34.036Z,8.43
2019-02-26T04:54:39.505Z,7.17
2019-02-26T04:59:44.033Z,7.40
2019-02-26T05:04:49.087Z,9.43
2019-02-26T05:09:58.796Z,9.10
2019-02-26T05:15:02.911Z,6.53
2019-02-26T05:20:13.508Z,8.17
2019-02-26T05:25:19.771Z,9.03
2019-02-26T05:30:24.343Z,8.33
2019-02-26T05:35:28.984Z,9.73
2019-02-26T05:40:37.414Z,7.17
2019-02-26T05:45:40.227Z,6.80
2019-02-26T05:50:44.805Z,8.93
2019-02-26T05:55:54.062Z,7.43
2019-02-26T06:01:03.171Z,12.23
2019-02-26T06:06:07.689Z,7.43
2019-02-26T06:11:18.350Z,10.43
2019-02-26T06:16:30.968Z,12.40
2019-02-26T06:21:35.068Z,8.50
2019-02-26T06:26:41.187Z,9.57
2019-02-26T06:31:49.426Z,10.33
2019-02-26T06:37:19.416Z,15.63
2019-02-26T06:42:33.241Z,9.40
2019-02-26T06:47:37.505Z,12.87
2019-02-26T06:52:47.526Z,16.70
2019-02-26T06:57:52.792Z,12.53
2019-02-26T07:03:00.157Z,13.90
2019-02-26T07:08:08.915Z,19.90
2019-02-26T07:13:14.184Z,19.93
2019-02-26T07:18:19.783Z,13.97
2019-02-26T07:23:25.127Z,16.10
2019-02-26T07:28:29.937Z,13.87
2019-02-26T07:33:37.105Z,22.27
2019-02-26T07:38:46.064Z,26.53
2019-02-26T07:44:00.026Z,17.87
2019-02-26T07:49:09.798Z,20.47
2019-02-26T07:54:19.713Z,21.93
2019-02-26T07:59:32.023Z,17.47
2019-02-26T08:04:36.235Z,21.03
2019-02-26T08:09:43.920Z,18.53
2019-02-26T08:14:50.156Z,18.23
2019-02-26T08:19:55.277Z,15.93
2019-02-26T08:25:00.140Z,14.33
2019-02-26T08:30:12.680Z,15.83
2019-02-26T08:35:21.309Z,19.10
2019-02-26T08:40:26.687Z,25.13
2019-02-26T08:45:34.715Z,21.13
2019-02-26T08:50:44.056Z,16.73
2019-02-26T08:55:54.181Z,16.10
2019-02-26T09:01:05.892Z,19.80
2019-02-26T09:06:13.640Z,16.03
2019-02-26T09:11:19.932Z,19.47
2019-02-26T09:16:27.653Z,16.97
2019-02-26T09:21:31.281Z,13.33
2019-02-26T09:26:36.026Z,12.43
2019-02-26T09:31:41.298Z,12.30
2019-02-26T09:37:08.979Z,9.77
2019-02-26T09:42:23.366Z,12.70
2019-02-26T09:47:31.580Z,12.63
2019-02-26T09:52:37.398Z,13.40
2019-02-26T09:57:53.204Z,10.10
2019-02-26T10:02:59.500Z,10.43
2019-02-26T10:08:10.171Z,12.40
2019-02-26T10:13:18.349Z,7.80
2019-02-26T10:18:25.659Z,9.10
2019-02-26T10:23:32.985Z,9.83
2019-02-26T10:28:39.606Z,7.57
2019-02-26T10:33:46.334Z,8.30
2019-02-26T10:38:53.160Z,5.27
2019-02-26T10:43:58.542Z,7.43
2019-02-26T10:49:07.357Z,8.13
2019-02-26T10:54:18.066Z,5.90
2019-02-26T10:59:24.031Z,4.60
2019-02-26T11:04:34.852Z,8.57
2019-02-26T11:09:44.826Z,9.53
2019-02-26T11:14:49.964Z,10.73
2019-02-26T11:19:55.589Z,7.50
2019-02-26T11:25:01.574Z,13.37
2019-02-26T11:30:07.350Z,7.07
2019-02-26T11:35:14.491Z,7.90
2019-02-26T11:40:22.157Z,9.37
2019-02-26T11:45:27.126Z,14.73
2019-02-26T11:50:32.230Z,15.20
2019-02-26T11:55:37.564Z,17.20
2019-02-26T12:00:50.685Z,9.60
2019-02-26T12:06:01.061Z,14.70
2019-02-26T12:11:06.810Z,7.90
2019-02-26T12:16:12.246Z,9.97
2019-02-26T12:21:17.588Z,6.40
2019-02-26T12:26:25.621Z,11.33
2019-02-26T12:31:31.840Z,6.90
2019-02-26T12:36:37.903Z,14.23
2019-02-26T12:41:45.396Z,9.60
2019-02-26T12:46:53.745Z,13.50
2019-02-26T12:52:00.567Z,15.77
2019-02-26T12:57:09.129Z,16.20
2019-02-26T13:02:17.047Z,11.23
2019-02-26T13:07:21.062Z,7.67
2019-02-26T13:12:32.385Z,14.37
2019-02-26T13:17:36.387Z,8.93
2019-02-26T13:22:45.601Z,7.83
2019-02-26T13:27:48.422Z,12.37
2019-02-26T13:32:57.413Z,9.77
2019-02-26T13:38:14.184Z,11.47
2019-02-26T13:43:19.188Z,9.63
2019-02-26T13:48:24.188Z,14.80
2019-02-26T13:53:29.273Z,14.87
2019-02-26T13:58:39.647Z,6.67
2019-02-26T14:03:46.545Z,13.17
2019-02-26T14:08:51.535Z,10.23
2019-02-26T14:13:56.700Z,17.93
2019-02-26T14:19:01.641Z,10.77
2019-02-26T14:24:07.305Z,13.03
2019-02-26T14:29:12.060Z,10.37
2019-02-26T14:34:21.976Z,12.80
2019-02-26T14:39:29.664Z,8.70
2019-02-26T14:44:35.178Z,6.87
2019-02-26T14:49:47.382Z,14.40
2019-02-26T14:54:57.043Z,10.73
2019-02-26T15:00:02.108Z,8.57
2019-02-26T15:05:07.312Z,17.43
2019-02-26T15:10:14.858Z,6.77
2019-02-26T15:15:20.556Z,12.17
2019-02-26T15:20:25.967Z,5.93
2019-02-26T15:25:30.993Z,9.77
2019-02-26T15:30:36.787Z,9.10
2019-02-26T15:35:53.263Z,7.20
2019-02-26T15:40:58.641Z,8.40
2019-02-26T15:46:09.643Z,6.57
2019-02-26T15:51:19.861Z,4.87
2019-02-26T15:56:21.966Z,11.33
2019-02-26T16:01:32.745Z,10.37
2019-02-26T16:06:38.375Z,4.73
2019-02-26T16:11:45.811Z,7.30
2019-02-26T16:16:52.033Z,12.13
2019-02-26T16:21:57.582Z,10.50
2019-02-26T16:27:02.344Z,7.57
2019-02-26T16:32:07.291Z,12.97
2019-02-26T16:37:16.912Z,7.63
2019-02-26T16:42:24.327Z,10.63
2019-02-26T16:47:31.402Z,5.90
2019-02-26T16:52:42.406Z,4.60
2019-02-26T16:57:46.488Z,7.53
2019-02-26T17:02:54.953Z,9.57
2019-02-26T17:08:02.075Z,9.00
2019-02-26T17:13:07.832Z,5.77
2019-02-26T17:18:13.234Z,10.83
2019-02-26T17:23:18.556Z,5.87
2019-02-26T17:28:22.886Z,10.60
2019-02-26T17:33:27.023Z,7.03
2019-02-26T20:20:30.063Z,9.67
2019-02-26T20:25:34.588Z,11.33
2019-02-26T20:30:42.341Z,14.97
2019-02-26T20:35:47.180Z,19.10
2019-02-26T20:40:51.967Z,18.60
2019-02-26T20:45:56.991Z,15.87
2019-02-26T20:51:02.110Z,19.17
2019-02-26T20:56:06.775Z,18.47
2019-02-26T21:01:10.929Z,15.40
2019-02-26T21:06:15.656Z,10.60
2019-02-26T21:11:28.666Z,13.57
2019-02-26T21:16:33.508Z,11.17
2019-02-26T21:21:38.427Z,18.70
2019-02-26T21:26:42.669Z,16.97
2019-02-26T21:31:47.300Z,22.20
2019-02-26T21:36:51.606Z,15.53
2019-02-26T21:41:56.482Z,16.20
2019-02-26T21:47:01.813Z,17.67
2019-02-26T21:52:08.721Z,16.77
2019-02-26T21:57:13.068Z,17.17
2019-02-26T22:02:18.870Z,19.67
2019-02-26T22:07:23.697Z,20.20
2019-02-26T22:12:27.992Z,19.27
2019-02-26T22:17:32.176Z,17.20
2019-02-26T22:22:37.085Z,13.07
2019-02-26T22:27:41.647Z,13.47
2019-02-26T22:32:47.584Z,13.57
2019-02-26T22:37:55.696Z,13.53
2019-02-26T22:43:01.251Z,12.47
2019-02-26T22:48:05.841Z,11.93
2019-02-26T22:53:10.325Z,13.20
2019-02-26T22:58:16.020Z,13.10
2019-02-26T23:03:20.272Z,12.47
2019-02-26T23:08:25.139Z,12.93
2019-02-26T23:13:31.938Z,12.60
2019-02-26T23:18:38.275Z,13.30
2019-02-26T23:23:42.580Z,15.47
2019-02-26T23:28:48.095Z,14.37
2019-02-26T23:33:52.999Z,17.60
2019-02-26T23:38:59.006Z,14.17
2019-02-26T23:44:03.389Z,14.33
2019-02-26T23:49:08.365Z,23.90
2019-02-26T23:54:13.600Z,19.77
2019-02-26T23:59:17.915Z,17.70
